Time;durP1;ratioP1;P1;durP2;ratioP2;P2;SDS_P1;SDS_P2;PMS_P1;PMS_P2;Temp;Humidity;BMP_temperature;BMP_pressure;BME280_temperature;BME280_humidity;BME280_pressure;Samples;Min_cycle;Max_cycle;Signal;HPM_P1;HPM_P2
2024/03/07 00:00:22;;;;;;;4.53;1.35;;;;;;;;;;4836240;29;20042;-84
2024/03/07 00:02:49;;;;;;;5.50;1.10;;;;;;;;;;4829268;29;20045;-84
2024/03/07 00:05:15;;;;;;;5.78;0.73;;;;;;;;;;4839936;29;20057;-84
2024/03/07 00:07:42;;;;;;;1.20;0.50;;;;;;;;;;4835850;29;20461;-84
2024/03/07 00:10:09;;;;;;;2.10;0.90;;;;;;;;;;4846207;29;20042;-84
2024/03/07 00:12:35;;;;;;;3.38;0.65;;;;;;;;;;4835724;29;20038;-84
2024/03/07 00:15:02;;;;;;;8.40;1.13;;;;;;;;;;4843173;29;20034;-84
2024/03/07 00:17:29;;;;;;;2.95;0.88;;;;;;;;;;4835368;29;20405;-84
2024/03/07 00:19:54;;;;;;;9.82;3.03;;;;;;;;;;4842639;29;20073;-84
2024/03/07 00:22:21;;;;;;;2.78;1.08;;;;;;;;;;4838074;29;20719;-84
2024/03/07 00:24:49;;;;;;;2.72;0.70;;;;;;;;;;4837953;29;20046;-84
2024/03/07 00:27:15;;;;;;;5.97;1.30;;;;;;;;;;4839018;29;20416;-84
2024/03/07 00:29:41;;;;;;;3.13;1.20;;;;;;;;;;4836609;29;20049;-84
2024/03/07 00:32:07;;;;;;;1.85;0.80;;;;;;;;;;4836234;29;20142;-84
2024/03/07 00:34:33;;;;;;;1.60;0.68;;;;;;;;;;4836499;29;20042;-84
2024/03/07 00:37:00;;;;;;;3.00;1.65;;;;;;;;;;4832677;29;20153;-84
2024/03/07 00:39:26;;;;;;;3.58;1.15;;;;;;;;;;4825759;29;20049;-84
2024/03/07 00:41:52;;;;;;;3.88;1.23;;;;;;;;;;4826640;29;20500;-84
2024/03/07 00:44:18;;;;;;;1.98;0.93;;;;;;;;;;4839349;29;20099;-84
2024/03/07 00:46:44;;;;;;;2.17;0.65;;;;;;;;;;4838720;29;20408;-84
2024/03/07 00:49:10;;;;;;;7.97;2.67;;;;;;;;;;4825547;29;20077;-84
2024/03/07 00:51:36;;;;;;;4.72;1.48;;;;;;;;;;4837513;29;20058;-84
2024/03/07 00:54:02;;;;;;;3.22;1.33;;;;;;;;;;4838008;29;20100;-84
2024/03/07 00:56:28;;;;;;;2.22;0.77;;;;;;;;;;4839587;29;20099;-84
2024/03/07 00:58:54;;;;;;;2.10;0.73;;;;;;;;;;4840128;29;20045;-84
2024/03/07 01:01:20;;;;;;;4.18;0.90;;;;;;;;;;4839151;29;20045;-83
2024/03/07 01:03:46;;;;;;;2.05;0.90;;;;;;;;;;4838699;29;20053;-84
2024/03/07 01:06:12;;;;;;;8.07;0.93;;;;;;;;;;4838398;29;20049;-84
2024/03/07 01:08:39;;;;;;;1.50;0.47;;;;;;;;;;4837519;29;20050;-84
2024/03/07 01:11:12;;;;;;;4.35;0.90;;;;;;;;;;4836018;29;20546;-84
2024/03/07 01:13:39;;;;;;;2.10;0.60;;;;;;;;;;4850416;29;20086;-84
2024/03/07 01:16:05;;;;;;;6.80;0.80;;;;;;;;;;4838199;29;20085;-84
2024/03/07 01:18:34;;;;;;;3.85;0.55;;;;;;;;;;4840029;29;20072;-84
2024/03/07 01:21:00;;;;;;;4.13;1.20;;;;;;;;;;4833939;29;20413;-84
2024/03/07 01:23:28;;;;;;;1.65;0.55;;;;;;;;;;4835826;29;20043;-85
2024/03/07 01:25:55;;;;;;;2.78;0.98;;;;;;;;;;4832877;29;20130;-84
2024/03/07 01:28:22;;;;;;;2.05;0.82;;;;;;;;;;4848671;29;20033;-84
2024/03/07 01:30:48;;;;;;;1.42;0.60;;;;;;;;;;4836486;29;20058;-84
2024/03/07 01:33:14;;;;;;;0.57;0.55;;;;;;;;;;4834878;29;20042;-84
2024/03/07 01:35:40;;;;;;;5.35;1.08;;;;;;;;;;4839843;29;20871;-84
2024/03/07 01:38:08;;;;;;;2.65;0.85;;;;;;;;;;4839492;29;20113;-84
2024/03/07 01:40:34;;;;;;;1.23;0.40;;;;;;;;;;4824520;29;20565;-84
2024/03/07 01:43:02;;;;;;;2.95;0.50;;;;;;;;;;4830899;29;20503;-84
2024/03/07 01:45:28;;;;;;;16.23;1.40;;;;;;;;;;4838770;29;20203;-85
2024/03/07 01:47:55;;;;;;;4.57;1.42;;;;;;;;;;4835295;29;20482;-85
2024/03/07 01:50:21;;;;;;;6.78;0.90;;;;;;;;;;4838189;29;20053;-85
2024/03/07 01:52:47;;;;;;;6.10;1.05;;;;;;;;;;4827035;29;20523;-85
2024/03/07 01:55:13;;;;;;;4.18;1.58;;;;;;;;;;4840494;29;20317;-85
2024/03/07 01:57:40;;;;;;;5.00;1.23;;;;;;;;;;4840137;29;20393;-85
2024/03/07 02:00:06;;;;;;;2.33;0.88;;;;;;;;;;4826449;29;20038;-84
2024/03/07 02:02:33;;;;;;;8.60;0.73;;;;;;;;;;4824104;29;21027;-84
2024/03/07 02:04:59;;;;;;;2.05;0.82;;;;;;;;;;4839768;29;20560;-84
2024/03/07 02:07:26;;;;;;;1.60;0.47;;;;;;;;;;4836334;29;20050;-84
2024/03/07 02:09:59;;;;;;;1.23;0.32;;;;;;;;;;4839895;29;20048;-84
2024/03/07 02:12:26;;;;;;;2.03;0.68;;;;;;;;;;4822827;29;20038;-84
2024/03/07 02:14:52;;;;;;;8.02;1.30;;;;;;;;;;4838497;29;20098;-85
2024/03/07 02:17:20;;;;;;;0.40;0.22;;;;;;;;;;4838229;29;20045;-85
2024/03/07 02:19:46;;;;;;;4.78;1.20;;;;;;;;;;4836184;29;20392;-84
2024/03/07 02:22:13;;;;;;;1.52;0.43;;;;;;;;;;4844177;29;20453;-84
2024/03/07 02:24:39;;;;;;;1.98;0.32;;;;;;;;;;4836045;29;20034;-84
2024/03/07 02:27:05;;;;;;;0.55;0.30;;;;;;;;;;4838826;29;20508;-84
2024/03/07 02:29:31;;;;;;;1.02;0.35;;;;;;;;;;4853145;29;20050;-84
2024/03/07 02:31:57;;;;;;;3.30;0.63;;;;;;;;;;4843509;29;20102;-84
2024/03/07 02:34:23;;;;;;;2.50;0.65;;;;;;;;;;4849330;29;20080;-84
2024/03/07 02:36:49;;;;;;;4.72;1.00;;;;;;;;;;4843717;29;20046;-85
2024/03/07 02:39:15;;;;;;;1.95;0.40;;;;;;;;;;4835863;29;20042;-84
2024/03/07 02:41:41;;;;;;;3.17;0.57;;;;;;;;;;4842974;29;20148;-85
2024/03/07 02:44:07;;;;;;;4.03;0.55;;;;;;;;;;4839611;29;20092;-84
2024/03/07 02:46:33;;;;;;;14.23;0.73;;;;;;;;;;4843032;29;20053;-84
2024/03/07 02:49:00;;;;;;;1.95;0.45;;;;;;;;;;4840461;29;20038;-84
2024/03/07 02:51:26;;;;;;;1.73;0.45;;;;;;;;;;4841322;29;20053;-84
2024/03/07 02:53:52;;;;;;;4.82;0.73;;;;;;;;;;4828199;29;20042;-84
2024/03/07 02:56:18;;;;;;;1.15;0.70;;;;;;;;;;4842333;29;20046;-84
2024/03/07 02:58:44;;;;;;;2.20;0.88;;;;;;;;;;4839748;29;20050;-84
2024/03/07 03:01:10;;;;;;;1.50;0.38;;;;;;;;;;4842557;29;20046;-84
2024/03/07 03:03:37;;;;;;;1.55;1.00;;;;;;;;;;4839637;29;20061;-84
2024/03/07 03:06:05;;;;;;;16.42;0.57;;;;;;;;;;4840009;29;20050;-84
2024/03/07 03:08:31;;;;;;;4.82;0.68;;;;;;;;;;4825792;29;20044;-84
2024/03/07 03:10:58;;;;;;;4.15;0.63;;;;;;;;;;4834184;29;20051;-84
2024/03/07 03:13:27;;;;;;;1.60;0.63;;;;;;;;;;4834957;29;20076;-84
2024/03/07 03:15:53;;;;;;;10.00;0.80;;;;;;;;;;4843831;29;20041;-84
2024/03/07 03:18:20;;;;;;;3.50;2.15;;;;;;;;;;4842107;29;20042;-84
2024/03/07 03:20:48;;;;;;;3.78;0.65;;;;;;;;;;4839357;29;20096;-84
2024/03/07 03:23:14;;;;;;;2.50;0.98;;;;;;;;;;4846291;29;20121;-84
2024/03/07 03:25:41;;;;;;;0.77;0.40;;;;;;;;;;4838396;29;20090;-84
2024/03/07 03:28:09;;;;;;;1.25;0.63;;;;;;;;;;4833572;29;20045;-84
2024/03/07 03:30:37;;;;;;;0.45;0.30;;;;;;;;;;4830174;29;20385;-84
2024/03/07 03:33:03;;;;;;;2.85;0.40;;;;;;;;;;4831494;29;20405;-84
2024/03/07 03:35:29;;;;;;;2.10;0.63;;;;;;;;;;4832223;29;20049;-84
2024/03/07 03:37:55;;;;;;;0.93;0.47;;;;;;;;;;4837897;29;20493;-84
2024/03/07 03:40:21;;;;;;;1.45;0.40;;;;;;;;;;4818556;29;20042;-84
2024/03/07 03:42:48;;;;;;;0.88;0.40;;;;;;;;;;4839034;29;20578;-83
2024/03/07 03:45:15;;;;;;;2.03;0.30;;;;;;;;;;4828714;29;20037;-84
2024/03/07 03:47:42;;;;;;;4.50;0.73;;;;;;;;;;4839679;29;20430;-84
2024/03/07 03:50:09;;;;;;;0.47;0.10;;;;;;;;;;4846498;29;20042;-84
2024/03/07 03:52:35;;;;;;;1.40;0.55;;;;;;;;;;4841559;29;20049;-84
2024/03/07 03:55:02;;;;;;;2.70;0.70;;;;;;;;;;4841760;29;20046;-84
2024/03/07 03:57:29;;;;;;;2.42;0.52;;;;;;;;;;4838994;29;20059;-83
2024/03/07 03:59:55;;;;;;;9.23;0.85;;;;;;;;;;4835610;29;20098;-84
2024/03/07 04:02:22;;;;;;;2.70;0.75;;;;;;;;;;4840637;29;20799;-84
2024/03/07 04:04:48;;;;;;;1.80;0.43;;;;;;;;;;4839892;29;20049;-84
2024/03/07 04:07:15;;;;;;;1.77;0.20;;;;;;;;;;4834885;29;20431;-84
2024/03/07 04:09:42;;;;;;;0.90;0.28;;;;;;;;;;4841387;29;20045;-84
2024/03/07 04:12:11;;;;;;;2.05;0.40;;;;;;;;;;4844227;29;20038;-84
2024/03/07 04:14:37;;;;;;;2.00;1.27;;;;;;;;;;4842481;29;20141;-84
2024/03/07 04:17:05;;;;;;;1.38;0.40;;;;;;;;;;4843967;29;20041;-84
2024/03/07 04:19:33;;;;;;;2.22;0.35;;;;;;;;;;4835210;29;20446;-85
2024/03/07 04:21:59;;;;;;;3.33;0.60;;;;;;;;;;4842364;29;20045;-85
2024/03/07 04:24:25;;;;;;;3.47;0.85;;;;;;;;;;4841593;29;20396;-84
2024/03/07 04:26:53;;;;;;;0.80;0.40;;;;;;;;;;4842176;29;20049;-84
2024/03/07 04:29:19;;;;;;;2.22;0.32;;;;;;;;;;4835683;29;20576;-84
2024/03/07 04:31:45;;;;;;;1.50;0.73;;;;;;;;;;4835507;29;20096;-84
2024/03/07 04:34:11;;;;;;;1.80;0.35;;;;;;;;;;4840497;29;20149;-84
2024/03/07 04:36:37;;;;;;;2.13;0.35;;;;;;;;;;4842788;29;20512;-83
2024/03/07 04:39:04;;;;;;;7.63;1.40;;;;;;;;;;4837410;29;20413;-84
2024/03/07 04:41:30;;;;;;;1.02;0.43;;;;;;;;;;4840277;29;20053;-84
2024/03/07 04:43:57;;;;;;;2.22;0.63;;;;;;;;;;4837343;29;20050;-83
2024/03/07 04:46:23;;;;;;;2.35;0.50;;;;;;;;;;4834976;29;20085;-84
2024/03/07 04:48:49;;;;;;;1.10;0.82;;;;;;;;;;4825190;29;20077;-84
2024/03/07 04:51:15;;;;;;;1.88;0.73;;;;;;;;;;4844897;29;20059;-84
2024/03/07 04:53:42;;;;;;;4.57;0.77;;;;;;;;;;4833970;29;20039;-84
2024/03/07 04:56:09;;;;;;;7.97;1.25;;;;;;;;;;4848245;29;20045;-83
2024/03/07 04:58:35;;;;;;;0.80;0.47;;;;;;;;;;4824767;29;20043;-83
2024/03/07 05:01:02;;;;;;;1.65;0.63;;;;;;;;;;4833574;29;20077;-84
2024/03/07 05:03:28;;;;;;;1.85;0.73;;;;;;;;;;4824348;29;20525;-83
2024/03/07 05:05:54;;;;;;;0.98;0.45;;;;;;;;;;4817780;29;20114;-84
2024/03/07 05:08:20;;;;;;;3.08;0.95;;;;;;;;;;4843309;29;20077;-84
2024/03/07 05:10:46;;;;;;;38.00;11.55;;;;;;;;;;4840702;29;20045;-84
2024/03/07 05:13:12;;;;;;;5.22;2.75;;;;;;;;;;4840985;29;20049;-83
2024/03/07 05:15:38;;;;;;;5.75;2.75;;;;;;;;;;4842936;29;20042;-83
2024/03/07 05:18:04;;;;;;;1.70;0.90;;;;;;;;;;4855506;29;20110;-83
2024/03/07 05:20:31;;;;;;;2.75;1.27;;;;;;;;;;4838390;29;20409;-83
2024/03/07 05:22:58;;;;;;;3.17;1.17;;;;;;;;;;4835885;29;20053;-83
2024/03/07 05:25:24;;;;;;;4.30;1.23;;;;;;;;;;4836362;29;20050;-83
2024/03/07 05:27:51;;;;;;;3.47;0.90;;;;;;;;;;4856423;29;20048;-83
2024/03/07 05:30:17;;;;;;;2.83;0.57;;;;;;;;;;4841362;29;20485;-83
2024/03/07 05:32:43;;;;;;;2.08;0.50;;;;;;;;;;4832585;29;20396;-83
2024/03/07 05:35:10;;;;;;;1.52;0.55;;;;;;;;;;4840862;29;20034;-83
2024/03/07 05:37:36;;;;;;;2.90;1.48;;;;;;;;;;4841336;29;20442;-83
2024/03/07 05:40:03;;;;;;;0.90;0.43;;;;;;;;;;4842925;29;20045;-83
2024/03/07 05:42:31;;;;;;;1.83;0.65;;;;;;;;;;4842408;29;20114;-83
2024/03/07 05:44:57;;;;;;;1.50;0.50;;;;;;;;;;4839235;29;20046;-83
2024/03/07 05:47:23;;;;;;;2.97;0.75;;;;;;;;;;4842163;29;20057;-83
2024/03/07 05:49:50;;;;;;;1.90;0.45;;;;;;;;;;4841997;29;20042;-83
2024/03/07 05:52:16;;;;;;;1.13;0.57;;;;;;;;;;4841430;29;20038;-83
2024/03/07 05:54:43;;;;;;;1.05;0.63;;;;;;;;;;4841764;29;20488;-83
2024/03/07 05:57:10;;;;;;;1.40;0.52;;;;;;;;;;4841545;29;20042;-83
2024/03/07 05:59:36;;;;;;;1.73;0.75;;;;;;;;;;4843973;29;20048;-84
2024/03/07 06:02:02;;;;;;;2.67;0.70;;;;;;;;;;4845247;29;20380;-84
2024/03/07 06:04:29;;;;;;;2.85;0.90;;;;;;;;;;4844989;29;20469;-83
2024/03/07 06:06:55;;;;;;;0.73;0.45;;;;;;;;;;4845828;29;20046;-84
2024/03/07 06:09:21;;;;;;;3.17;1.73;;;;;;;;;;4859571;29;20056;-83
2024/03/07 06:11:48;;;;;;;2.75;1.00;;;;;;;;;;4844583;29;20049;-83
2024/03/07 06:14:14;;;;;;;2.13;0.57;;;;;;;;;;4839131;29;20049;-82
2024/03/07 06:16:41;;;;;;;4.20;0.95;;;;;;;;;;4844417;29;20462;-83
2024/03/07 06:19:08;;;;;;;16.85;1.10;;;;;;;;;;4840183;29;20046;-83
2024/03/07 06:21:34;;;;;;;1.02;0.50;;;;;;;;;;4836609;29;20062;-84
2024/03/07 06:24:01;;;;;;;2.97;1.40;;;;;;;;;;4838861;29;20046;-84
2024/03/07 06:26:37;;;;;;;4.60;1.30;;;;;;;;;;4841335;29;20132;-86
2024/03/07 06:29:06;;;;;;;1.75;0.70;;;;;;;;;;4846997;29;20045;-84
2024/03/07 06:31:32;;;;;;;1.33;0.70;;;;;;;;;;4843680;29;20065;-84
2024/03/07 06:33:58;;;;;;;2.63;1.20;;;;;;;;;;4842140;29;20546;-83
2024/03/07 06:36:28;;;;;;;1.38;0.63;;;;;;;;;;4840072;29;20050;-85
2024/03/07 06:38:54;;;;;;;2.42;0.82;;;;;;;;;;4827760;29;20419;-85
2024/03/07 06:41:20;;;;;;;1.85;1.05;;;;;;;;;;4830325;29;20051;-87
2024/03/07 06:43:46;;;;;;;7.90;1.63;;;;;;;;;;4842518;29;20049;-87
2024/03/07 06:46:12;;;;;;;1.75;0.88;;;;;;;;;;4841675;29;20079;-86
2024/03/07 06:48:40;;;;;;;1.38;0.52;;;;;;;;;;4841963;29;20473;-86
2024/03/07 06:51:06;;;;;;;2.75;1.10;;;;;;;;;;4826093;29;20043;-86
2024/03/07 06:53:32;;;;;;;2.40;1.00;;;;;;;;;;4852140;29;20041;-86
2024/03/07 06:55:58;;;;;;;3.00;0.95;;;;;;;;;;4844331;29;20046;-87
2024/03/07 06:58:24;;;;;;;4.18;0.93;;;;;;;;;;4844621;29;20121;-87
2024/03/07 07:00:57;;;;;;;2.70;1.15;;;;;;;;;;4844933;29;20146;-87
2024/03/07 07:03:24;;;;;;;2.47;1.38;;;;;;;;;;4845228;29;20029;-87
2024/03/07 07:05:50;;;;;;;8.88;1.45;;;;;;;;;;4844623;29;20144;-87
2024/03/07 07:08:16;;;;;;;4.00;1.48;;;;;;;;;;4844571;29;20492;-87
2024/03/07 07:10:43;;;;;;;4.93;2.08;;;;;;;;;;4843825;29;20054;-87
2024/03/07 07:13:10;;;;;;;4.45;1.27;;;;;;;;;;4845034;29;20070;-87
2024/03/07 07:15:39;;;;;;;2.72;1.42;;;;;;;;;;4844254;29;20465;-87
2024/03/07 07:18:07;;;;;;;1.98;0.73;;;;;;;;;;4845344;29;20034;-87
2024/03/07 07:20:34;;;;;;;1.65;0.80;;;;;;;;;;4844080;29;20054;-87
2024/03/07 07:23:03;;;;;;;1.50;0.75;;;;;;;;;;4844118;29;20492;-86
2024/03/07 07:25:32;;;;;;;2.78;0.90;;;;;;;;;;4844207;29;20046;-87
2024/03/07 07:27:58;;;;;;;0.60;0.40;;;;;;;;;;4844061;29;20081;-87
2024/03/07 07:30:27;;;;;;;1.88;0.70;;;;;;;;;;4843751;29;20065;-87
2024/03/07 07:32:53;;;;;;;2.75;1.35;;;;;;;;;;4844229;29;20041;-87
2024/03/07 07:35:24;;;;;;;3.00;0.80;;;;;;;;;;4843755;29;20111;-87
2024/03/07 07:37:53;;;;;;;0.93;0.40;;;;;;;;;;4843716;29;20030;-87
2024/03/07 07:40:22;;;;;;;1.65;0.40;;;;;;;;;;4843951;29;20081;-87
2024/03/07 07:42:49;;;;;;;4.88;1.58;;;;;;;;;;4842468;29;20057;-86
2024/03/07 07:45:16;;;;;;;4.03;1.48;;;;;;;;;;4837583;29;20068;-86
2024/03/07 07:47:45;;;;;;;1.70;0.52;;;;;;;;;;4833906;29;20039;-86
2024/03/07 07:50:17;;;;;;;0.20;0.13;;;;;;;;;;4838218;29;20747;-86
2024/03/07 07:52:43;;;;;;;;;;;;;;;;;;4830337;29;20116;-87
2024/03/07 07:55:14;;;;;;;8.30;0.70;;;;;;;;;;4840554;29;20455;-87
2024/03/07 07:57:41;;;;;;;4.60;0.70;;;;;;;;;;4842395;29;20141;-87
2024/03/07 08:00:10;;;;;;;6.78;0.75;;;;;;;;;;4840999;29;20054;-87
2024/03/07 08:02:39;;;;;;;7.47;1.67;;;;;;;;;;4836821;29;20046;-87
2024/03/07 08:05:05;;;;;;;1.73;1.15;;;;;;;;;;4850291;29;20042;-87
2024/03/07 08:07:31;;;;;;;4.30;1.08;;;;;;;;;;4856265;29;20038;-87
2024/03/07 08:09:57;;;;;;;4.20;0.77;;;;;;;;;;4842332;29;20046;-87
2024/03/07 08:12:23;;;;;;;4.35;0.70;;;;;;;;;;4848647;29;20042;-87
2024/03/07 08:14:49;;;;;;;1.77;0.63;;;;;;;;;;4850863;29;20091;-87
2024/03/07 08:17:19;;;;;;;1.58;0.68;;;;;;;;;;4842247;29;20397;-88
2024/03/07 08:19:49;;;;;;;2.05;0.57;;;;;;;;;;4835539;29;20056;-88
2024/03/07 08:22:15;;;;;;;1.75;0.90;;;;;;;;;;4829501;29;20056;-88
2024/03/07 08:24:43;;;;;;;3.25;0.55;;;;;;;;;;4842071;29;20042;-87
2024/03/07 08:27:11;;;;;;;1.00;0.40;;;;;;;;;;4841839;29;20046;-87
2024/03/07 08:29:37;;;;;;;0.75;0.40;;;;;;;;;;4841812;29;20086;-88
2024/03/07 08:32:03;;;;;;;1.80;0.35;;;;;;;;;;4858874;29;20093;-89
2024/03/07 08:34:32;;;;;;;0.73;0.25;;;;;;;;;;4843090;29;20042;-88
2024/03/07 08:36:59;;;;;;;1.58;0.63;;;;;;;;;;4858140;29;20042;-89
2024/03/07 08:39:25;;;;;;;1.13;0.20;;;;;;;;;;4857568;29;20081;-89
2024/03/07 08:41:51;;;;;;;1.15;0.57;;;;;;;;;;4855832;29;20045;-90
2024/03/07 08:44:18;;;;;;;0.80;0.55;;;;;;;;;;4826802;29;20068;-87
2024/03/07 08:46:44;;;;;;;1.05;0.38;;;;;;;;;;4842054;29;20041;-87
2024/03/07 08:49:12;;;;;;;2.35;0.70;;;;;;;;;;4850357;29;20094;-88
2024/03/07 08:51:38;;;;;;;0.65;0.30;;;;;;;;;;4843160;29;20078;-88
2024/03/07 08:54:04;;;;;;;3.55;0.50;;;;;;;;;;4842520;29;20046;-90
2024/03/07 08:56:30;;;;;;;6.18;0.50;;;;;;;;;;4842291;29;20501;-90
2024/03/07 08:58:57;;;;;;;4.57;0.47;;;;;;;;;;4845468;29;20044;-89
2024/03/07 09:01:23;;;;;;;0.68;0.20;;;;;;;;;;4845595;29;20052;-89
2024/03/07 09:03:49;;;;;;;1.33;0.30;;;;;;;;;;4840045;29;20044;-87
2024/03/07 09:06:16;;;;;;;1.98;0.40;;;;;;;;;;4832545;29;20052;-90
2024/03/07 09:08:44;;;;;;;1.13;0.40;;;;;;;;;;4824591;29;20486;-87
2024/03/07 09:11:10;;;;;;;1.77;0.75;;;;;;;;;;4836627;29;20129;-90
2024/03/07 09:13:36;;;;;;;2.45;0.30;;;;;;;;;;4823422;29;20049;-90
2024/03/07 09:16:04;;;;;;;1.85;0.20;;;;;;;;;;4855120;29;20187;-89
2024/03/07 09:18:30;;;;;;;2.20;0.60;;;;;;;;;;4857585;29;20047;-89
2024/03/07 09:20:57;;;;;;;1.63;0.50;;;;;;;;;;4845553;29;20041;-90
2024/03/07 09:23:23;;;;;;;1.00;0.57;;;;;;;;;;4856175;29;20587;-90
2024/03/07 09:25:49;;;;;;;3.20;0.77;;;;;;;;;;4839207;29;20560;-89
2024/03/07 09:28:15;;;;;;;2.50;0.20;;;;;;;;;;4835822;29;20477;-89
2024/03/07 09:30:41;;;;;;;0.50;0.10;;;;;;;;;;4847206;29;20405;-90
2024/03/07 09:33:10;;;;;;;0.50;0.22;;;;;;;;;;4839158;29;20109;-89
2024/03/07 09:35:38;;;;;;;0.77;0.35;;;;;;;;;;4849815;29;20504;-88
2024/03/07 09:38:04;;;;;;;1.00;0.32;;;;;;;;;;4826292;29;20049;-88
2024/03/07 09:40:30;;;;;;;0.60;0.25;;;;;;;;;;4849472;29;20038;-88
2024/03/07 09:42:57;;;;;;;1.50;0.60;;;;;;;;;;4859548;29;20098;-88
2024/03/07 09:45:28;;;;;;;1.25;0.35;;;;;;;;;;4850628;29;20077;-88
2024/03/07 09:47:55;;;;;;;2.28;0.25;;;;;;;;;;4841260;29;20049;-88
2024/03/07 09:50:21;;;;;;;4.22;0.25;;;;;;;;;;4830253;29;20128;-88
2024/03/07 09:52:51;;;;;;;1.33;0.55;;;;;;;;;;4843457;29;20052;-88
2024/03/07 09:55:19;;;;;;;0.28;0.10;;;;;;;;;;4844098;29;20037;-89
2024/03/07 09:57:50;;;;;;;1.92;0.40;;;;;;;;;;4826341;29;20050;-89
2024/03/07 10:00:22;;;;;;;1.95;0.25;;;;;;;;;;4850145;29;20061;-89
2024/03/07 10:02:50;;;;;;;2.25;0.30;;;;;;;;;;4850829;29;20061;-89
2024/03/07 10:05:18;;;;;;;0.52;0.28;;;;;;;;;;4861438;29;20489;-89
2024/03/07 10:07:45;;;;;;;3.30;1.05;;;;;;;;;;4845977;29;20473;-89
2024/03/07 10:10:11;;;;;;;0.60;0.20;;;;;;;;;;4847557;29;20038;-87
2024/03/07 10:12:38;;;;;;;4.80;0.70;;;;;;;;;;4841714;29;20138;-88
2024/03/07 10:15:12;;;;;;;0.93;0.30;;;;;;;;;;4835644;29;20045;-89
2024/03/07 10:17:39;;;;;;;0.50;0.15;;;;;;;;;;4841249;29;20050;-88
2024/03/07 10:20:09;;;;;;;1.30;0.20;;;;;;;;;;4838231;29;20045;-88
2024/03/07 10:22:36;;;;;;;1.30;0.90;;;;;;;;;;4843867;29;20054;-88
2024/03/07 10:25:05;;;;;;;3.00;0.20;;;;;;;;;;4840763;29;20376;-88
2024/03/07 10:27:31;;;;;;;0.68;0.13;;;;;;;;;;4837832;29;20062;-88
2024/03/07 10:29:57;;;;;;;3.00;0.90;;;;;;;;;;4841478;29;20057;-88
2024/03/07 10:32:23;;;;;;;1.40;0.30;;;;;;;;;;4835458;29;20053;-89
2024/03/07 10:34:53;;;;;;;2.15;0.55;;;;;;;;;;4841809;29;20171;-89
2024/03/07 10:37:24;;;;;;;0.63;0.10;;;;;;;;;;4840106;29;20080;-89
2024/03/07 10:39:50;;;;;;;2.58;0.65;;;;;;;;;;4846980;29;20057;-88
2024/03/07 10:42:17;;;;;;;0.43;0.30;;;;;;;;;;4846212;29;20038;-88
2024/03/07 10:44:47;;;;;;;0.28;0.13;;;;;;;;;;4835318;29;20047;-88
2024/03/07 10:47:23;;;;;;;0.55;0.20;;;;;;;;;;4852074;29;20074;-88
2024/03/07 10:50:04;;;;;;;1.75;0.47;;;;;;;;;;4836459;29;20132;-88
2024/03/07 10:52:39;;;;;;;0.73;0.20;;;;;;;;;;4849024;29;20050;-88
2024/03/07 10:55:09;;;;;;;1.17;0.22;;;;;;;;;;4853764;29;20065;-88
2024/03/07 10:57:39;;;;;;;1.17;0.20;;;;;;;;;;4833015;29;20054;-87
2024/03/07 11:00:24;;;;;;;1.00;0.30;;;;;;;;;;4850332;29;20095;-87
2024/03/07 11:02:53;;;;;;;1.50;0.20;;;;;;;;;;4846158;29;20382;-88
2024/03/07 11:05:19;;;;;;;0.65;0.15;;;;;;;;;;4831371;29;20091;-88
2024/03/07 11:07:49;;;;;;;0.15;0.08;;;;;;;;;;4840922;29;20058;-88
2024/03/07 11:10:17;;;;;;;6.30;0.13;;;;;;;;;;4854415;29;20042;-87
2024/03/07 11:12:45;;;;;;;0.90;0.15;;;;;;;;;;4839949;29;20489;-87
2024/03/07 11:15:14;;;;;;;2.30;0.25;;;;;;;;;;4840176;29;20046;-88
2024/03/07 11:17:48;;;;;;;1.17;0.13;;;;;;;;;;4840637;29;20851;-88
2024/03/07 11:20:21;;;;;;;0.55;0.08;;;;;;;;;;4839789;29;20481;-88
2024/03/07 11:22:48;;;;;;;0.43;0.10;;;;;;;;;;4825183;29;20061;-88
2024/03/07 11:25:15;;;;;;;1.45;0.22;;;;;;;;;;4826686;29;20046;-88
2024/03/07 11:27:51;;;;;;;0.82;0.10;;;;;;;;;;4831422;29;20687;-88
2024/03/07 11:30:17;;;;;;;0.03;0.00;;;;;;;;;;4833190;29;20050;-88
2024/03/07 11:32:44;;;;;;;2.78;0.20;;;;;;;;;;4838217;29;20141;-89
2024/03/07 11:35:14;;;;;;;0.10;0.10;;;;;;;;;;4848669;29;20053;-86
2024/03/07 11:37:46;;;;;;;0.10;0.05;;;;;;;;;;4842718;29;20073;-88
2024/03/07 11:40:18;;;;;;;0.50;0.10;;;;;;;;;;4841033;29;20136;-88
2024/03/07 11:42:47;;;;;;;0.85;0.22;;;;;;;;;;4830683;29;20186;-88
2024/03/07 11:45:52;;;;;;;3.90;0.30;;;;;;;;;;4842177;29;20132;-88
2024/03/07 11:48:09;;;;;;;;;;;;;;;;;;4835105;29;20053;-86
2024/03/07 11:50:36;;;;;;;0.63;0.17;;;;;;;;;;4832500;29;19917;-87
2024/03/07 11:53:05;;;;;;;0.20;0.10;;;;;;;;;;4835721;29;20846;-88
2024/03/07 11:55:50;;;;;;;0.40;0.03;;;;;;;;;;4836114;29;20660;-88
2024/03/07 11:58:25;;;;;;;1.85;0.50;;;;;;;;;;4831629;29;20046;-89
2024/03/07 12:00:52;;;;;;;1.02;0.40;;;;;;;;;;4818903;29;20068;-88
2024/03/07 12:03:23;;;;;;;0.75;0.25;;;;;;;;;;4837458;29;20050;-88
2024/03/07 12:05:51;;;;;;;0.47;0.10;;;;;;;;;;4838223;29;20086;-88
2024/03/07 12:08:17;;;;;;;0.30;0.20;;;;;;;;;;4837849;29;20054;-86
2024/03/07 12:10:44;;;;;;;0.98;0.20;;;;;;;;;;4849543;29;20037;-88
2024/03/07 12:13:16;;;;;;;0.65;0.20;;;;;;;;;;4836021;29;20046;-88
2024/03/07 12:15:43;;;;;;;0.85;0.05;;;;;;;;;;4853420;29;20171;-88
2024/03/07 12:18:10;;;;;;;0.80;0.20;;;;;;;;;;4840250;29;20424;-89
2024/03/07 12:20:37;;;;;;;0.47;0.20;;;;;;;;;;4845254;29;20917;-89
2024/03/07 12:23:05;;;;;;;0.20;0.10;;;;;;;;;;4838713;29;20567;-88
2024/03/07 12:25:32;;;;;;;0.75;0.25;;;;;;;;;;4829571;29;20798;-86
2024/03/07 12:28:12;;;;;;;2.13;0.80;;;;;;;;;;4851533;29;20050;-88
2024/03/07 12:30:47;;;;;;;0.90;0.30;;;;;;;;;;4836248;29;20568;-88
2024/03/07 12:33:13;;;;;;;1.98;0.30;;;;;;;;;;4839207;29;20053;-86
2024/03/07 12:35:42;;;;;;;0.75;0.30;;;;;;;;;;4826261;29;20485;-89
2024/03/07 12:38:10;;;;;;;0.25;0.10;;;;;;;;;;4834043;29;20042;-88
2024/03/07 12:40:37;;;;;;;4.25;0.30;;;;;;;;;;4820608;29;20393;-88
2024/03/07 12:43:03;;;;;;;1.15;0.20;;;;;;;;;;4813811;29;20389;-88
2024/03/07 12:45:34;;;;;;;0.20;0.10;;;;;;;;;;4846673;29;20561;-89
2024/03/07 12:48:04;;;;;;;0.65;0.20;;;;;;;;;;4838125;29;20073;-88
2024/03/07 12:50:30;;;;;;;2.08;0.10;;;;;;;;;;4828712;29;20125;-87
2024/03/07 12:52:56;;;;;;;1.30;0.38;;;;;;;;;;4841648;29;20044;-88
2024/03/07 12:55:23;;;;;;;0.35;0.10;;;;;;;;;;4839927;29;20050;-89
2024/03/07 12:57:54;;;;;;;1.52;0.60;;;;;;;;;;4839674;29;20074;-88
2024/03/07 13:00:23;;;;;;;0.65;0.15;;;;;;;;;;4853306;29;20087;-89
2024/03/07 13:02:55;;;;;;;0.10;0.10;;;;;;;;;;4840502;29;20069;-88
2024/03/07 13:05:22;;;;;;;0.65;0.20;;;;;;;;;;4835977;29;20041;-89
2024/03/07 13:07:51;;;;;;;1.83;0.50;;;;;;;;;;4836953;29;20072;-89
2024/03/07 13:10:21;;;;;;;1.88;0.40;;;;;;;;;;4837785;29;20053;-89
2024/03/07 13:12:48;;;;;;;1.20;0.15;;;;;;;;;;4845463;29;20077;-87
2024/03/07 13:15:22;;;;;;;1.10;0.30;;;;;;;;;;4852587;29;20033;-87
2024/03/07 13:17:53;;;;;;;0.95;0.30;;;;;;;;;;4842396;29;20046;-86
2024/03/07 13:20:26;;;;;;;0.47;0.20;;;;;;;;;;4841757;29;20485;-87
2024/03/07 13:23:00;;;;;;;0.15;0.13;;;;;;;;;;4854914;29;20508;-89
2024/03/07 13:25:31;;;;;;;4.90;0.63;;;;;;;;;;4841101;29;20038;-89
2024/03/07 13:28:00;;;;;;;1.67;0.30;;;;;;;;;;4838365;29;20141;-88
2024/03/07 13:30:32;;;;;;;0.77;0.30;;;;;;;;;;4841561;29;20049;-89
2024/03/07 13:33:00;;;;;;;;;;;;;;;;;;4841584;29;20160;-86
2024/03/07 13:35:27;;;;;;;0.95;0.20;;;;;;;;;;4841501;29;19953;-89
2024/03/07 13:38:01;;;;;;;0.50;0.20;;;;;;;;;;4841532;29;20095;-89
2024/03/07 13:40:27;;;;;;;1.60;0.38;;;;;;;;;;4838093;29;20184;-89
2024/03/07 13:42:58;;;;;;;0.80;0.40;;;;;;;;;;4852468;29;20222;-89
2024/03/07 13:45:30;;;;;;;0.73;0.25;;;;;;;;;;4852867;29;20394;-89
2024/03/07 13:48:02;;;;;;;1.08;0.20;;;;;;;;;;4855201;29;20046;-88
2024/03/07 13:50:34;;;;;;;0.15;0.10;;;;;;;;;;4842349;29;20137;-89
2024/03/07 13:53:13;;;;;;;0.50;0.20;;;;;;;;;;4837640;29;20041;-88
2024/03/07 13:55:52;;;;;;;1.08;0.20;;;;;;;;;;4859575;29;20045;-88
2024/03/07 13:58:41;;;;;;;0.77;0.20;;;;;;;;;;4845484;29;20046;-89
2024/03/07 14:01:23;;;;;;;0.20;0.15;;;;;;;;;;4793310;29;20102;-88
2024/03/07 14:04:15;;;;;;;0.40;0.20;;;;;;;;;;4853027;29;20054;-89
2024/03/07 14:06:52;;;;;;;0.63;0.30;;;;;;;;;;4805691;29;20073;-88
2024/03/07 14:09:33;;;;;;;2.17;0.68;;;;;;;;;;4842450;29;20054;-88
2024/03/07 14:12:36;;;;;;;0.73;0.30;;;;;;;;;;4837394;29;20093;-89
2024/03/07 14:15:25;;;;;;;0.93;0.40;;;;;;;;;;4847230;29;20051;-89
2024/03/07 14:18:15;;;;;;;0.68;0.30;;;;;;;;;;4855674;29;20045;-89
2024/03/07 14:20:43;;;;;;;3.70;0.30;;;;;;;;;;4838748;29;20488;-89
2024/03/07 14:23:18;;;;;;;1.60;0.60;;;;;;;;;;4845915;29;20067;-86
2024/03/07 14:26:04;;;;;;;0.60;0.30;;;;;;;;;;4841295;29;20076;-88
2024/03/07 14:28:46;;;;;;;1.00;0.30;;;;;;;;;;4846597;29;20137;-88
2024/03/07 14:31:18;;;;;;;0.60;0.20;;;;;;;;;;4855195;29;20050;-88
2024/03/07 14:33:55;;;;;;;1.30;0.40;;;;;;;;;;4859005;29;20046;-89
2024/03/07 14:36:48;;;;;;;3.08;0.35;;;;;;;;;;4831275;29;20129;-89
2024/03/07 14:39:14;;;;;;;;;;;;;;;;;;4841449;29;20386;-89
2024/03/07 14:42:14;;;;;;;1.50;0.30;;;;;;;;;;4828814;29;20025;-86
2024/03/07 14:44:53;;;;;;;1.20;0.35;;;;;;;;;;4834770;29;20492;-89
2024/03/07 14:47:28;;;;;;;3.03;0.40;;;;;;;;;;4843499;29;20054;-86
2024/03/07 14:49:54;;;;;;;1.73;0.90;;;;;;;;;;4839697;29;20053;-89